createdAt,value
2018-01-16T00:02:01.954Z,99354.64
2018-01-16T00:04:30.229Z,99345.97
2018-01-16T00:06:58.530Z,99339.63
2018-01-16T00:09:26.985Z,99330.86
2018-01-16T00:11:55.358Z,99322.75
2018-01-16T00:14:23.631Z,99311.38
2018-01-16T00:16:51.932Z,99308.81
2018-01-16T00:19:20.210Z,99291.79
2018-01-16T00:21:48.664Z,99288.81
2018-01-16T00:24:17.099Z,99282.58
2018-01-16T00:26:45.390Z,99279.21
2018-01-16T00:29:13.667Z,99266.63
2018-01-16T00:31:41.994Z,99264.61
2018-01-16T00:34:10.274Z,99243.23
2018-01-16T00:36:38.579Z,99242.27
2018-01-16T00:39:06.847Z,99245.39
2018-01-16T00:41:35.136Z,99240.52
2018-01-16T00:44:03.427Z,99229.98
2018-01-16T00:46:32.035Z,99221.17
2018-01-16T00:49:00.298Z,99218.87
2018-01-16T00:51:28.598Z,99210.13
2018-01-16T00:53:56.879Z,99219.84
2018-01-16T00:56:25.331Z,99206.08
2018-01-16T00:58:53.615Z,99208.66
2018-01-16T01:01:22.094Z,99200.02
2018-01-16T01:03:50.555Z,99191.78
2018-01-16T01:06:18.845Z,99190.03
2018-01-16T01:08:47.163Z,99181.00
2018-01-16T01:11:15.611Z,99178.14
2018-01-16T01:13:43.919Z,99188.56
2018-01-16T01:16:12.217Z,99169.23
2018-01-16T01:18:40.594Z,99157.77
2018-01-16T01:21:08.915Z,99167.36
2018-01-16T01:23:37.182Z,99149.02
2018-01-16T01:26:05.474Z,99137.55
2018-01-16T01:28:33.732Z,99130.65
2018-01-16T01:31:02.018Z,99128.62
2018-01-16T01:33:30.467Z,99119.98
2018-01-16T01:35:58.778Z,99102.13
2018-01-16T01:38:27.067Z,99114.29
2018-01-16T01:40:55.374Z,99100.92
2018-01-16T01:43:23.702Z,99091.20
2018-01-16T01:45:51.991Z,99091.75
2018-01-16T01:48:20.318Z,99091.63
2018-01-16T01:50:48.606Z,99076.21
2018-01-16T01:53:17.083Z,99081.63
2018-01-16T01:55:45.390Z,99080.41
2018-01-16T01:58:13.681Z,99063.67
2018-01-16T02:00:41.987Z,99058.55
2018-01-16T02:03:10.246Z,99050.98
2018-01-16T02:05:38.546Z,99053.18
2018-01-16T02:08:06.948Z,99051.69
2018-01-16T02:10:35.480Z,99038.77
2018-01-16T02:13:03.783Z,99033.89
2018-01-16T02:15:32.219Z,99031.22
2018-01-16T02:18:00.511Z,99016.63
2018-01-16T02:20:28.981Z,99007.05
2018-01-16T02:22:57.258Z,99002.61
2018-01-16T02:25:25.558Z,99005.18
2018-01-16T02:27:54.710Z,98992.47
2018-01-16T02:30:23.018Z,98977.77
2018-01-16T02:32:51.300Z,98986.27
2018-01-16T02:35:19.587Z,98966.59
2018-01-16T02:37:47.847Z,98961.32
2018-01-16T02:40:16.142Z,98965.78
2018-01-16T02:42:44.440Z,98959.70
2018-01-16T02:45:12.884Z,98949.05
2018-01-16T02:47:41.355Z,98948.34
2018-01-16T02:50:09.654Z,98938.64
2018-01-16T02:52:38.163Z,98936.47
2018-01-16T02:55:06.472Z,98934.02
2018-01-16T02:57:34.779Z,98938.61
2018-01-16T03:00:03.031Z,98928.09
2018-01-16T03:02:31.332Z,98919.70
2018-01-16T03:04:59.763Z,98922.11
2018-01-16T03:07:28.126Z,98902.23
2018-01-16T03:09:56.411Z,98906.98
2018-01-16T03:12:24.816Z,98913.45
2018-01-16T03:14:53.102Z,98902.09
2018-01-16T03:17:21.416Z,98899.93
2018-01-16T03:19:49.827Z,98899.66
2018-01-16T03:22:18.340Z,98890.31
2018-01-16T03:24:46.606Z,98890.08
2018-01-16T03:27:15.020Z,98882.65
2018-01-16T03:29:43.822Z,98880.06
2018-01-16T03:32:12.128Z,98880.63
2018-01-16T03:34:40.651Z,98890.67
2018-01-16T03:37:08.939Z,98869.58
2018-01-16T03:39:37.192Z,98860.83
2018-01-16T03:42:05.637Z,98861.50
2018-01-16T03:44:33.935Z,98857.34
2018-01-16T03:47:02.329Z,98851.67
2018-01-16T03:49:30.662Z,98857.19
2018-01-16T03:51:59.073Z,98856.52
2018-01-16T03:54:27.323Z,98838.52
2018-01-16T03:56:55.829Z,98835.81
2018-01-16T03:59:24.081Z,98823.22
2018-01-16T04:01:52.378Z,98817.88
2018-01-16T04:04:20.642Z,98821.43
2018-01-16T04:06:48.934Z,98815.45
2018-01-16T04:09:17.184Z,98798.13
2018-01-16T04:11:45.486Z,98806.09
2018-01-16T04:14:13.734Z,98799.61
2018-01-16T04:16:42.048Z,98805.91
2018-01-16T04:19:10.298Z,98795.74
2018-01-16T04:21:38.606Z,98792.59
2018-01-16T04:24:06.849Z,98794.17
2018-01-16T04:26:35.162Z,98792.28
2018-01-16T04:29:03.446Z,98780.88
2018-01-16T04:31:32.173Z,98786.92
2018-01-16T04:34:01.018Z,98787.59
2018-01-16T04:36:29.483Z,98783.98
2018-01-16T04:38:58.104Z,98780.10
2018-01-16T04:41:26.652Z,98775.86
2018-01-16T04:43:54.959Z,98771.90
2018-01-16T04:46:23.237Z,98773.64
2018-01-16T04:48:51.636Z,98763.38
2018-01-16T04:51:20.342Z,98761.66
2018-01-16T04:53:48.626Z,98753.85
2018-01-16T04:56:18.336Z,98755.97
2018-01-16T04:58:47.133Z,98756.50
2018-01-16T05:04:11.026Z,98766.87
2018-01-16T05:06:39.793Z,98766.73
2018-01-16T05:09:08.206Z,98759.37
2018-01-16T05:11:36.730Z,98756.07
2018-01-16T05:14:09.041Z,98754.77
2018-01-16T05:16:38.764Z,98752.70
2018-01-16T05:19:07.327Z,98752.43
2018-01-16T05:21:35.589Z,98756.66
2018-01-16T05:24:03.830Z,98756.06
2018-01-16T05:26:32.307Z,98745.44
2018-01-16T05:29:00.801Z,98749.25
2018-01-16T05:31:29.257Z,98751.14
2018-01-16T05:33:57.696Z,98744.56
2018-01-16T05:36:26.041Z,98740.91
2018-01-16T05:38:54.941Z,98750.32
2018-01-16T05:41:23.301Z,98756.34
2018-01-16T05:43:51.749Z,98748.05
2018-01-16T05:46:24.690Z,98747.38
2018-01-16T05:48:53.861Z,98747.05
2018-01-16T05:51:22.221Z,98748.73
2018-01-16T05:53:55.398Z,98745.69
2018-01-16T05:56:24.648Z,98749.75
2018-01-16T05:58:52.954Z,98741.09
2018-01-16T06:01:22.677Z,98750.28
2018-01-16T06:03:52.018Z,98744.80
2018-01-16T06:06:24.013Z,98749.86
2018-01-16T06:08:52.530Z,98753.69
2018-01-16T06:11:21.181Z,98746.78
2018-01-16T06:13:49.501Z,98754.59
2018-01-16T06:16:18.339Z,98750.54
2018-01-16T06:18:46.640Z,98757.95
2018-01-16T06:21:14.948Z,98751.09
2018-01-16T06:23:43.224Z,98756.31
2018-01-16T06:26:11.493Z,98749.53
2018-01-16T06:28:39.753Z,98746.17
2018-01-16T06:31:08.028Z,98749.15
2018-01-16T06:33:36.281Z,98743.66
2018-01-16T06:36:04.568Z,98744.61
2018-01-16T06:38:32.816Z,98747.05
2018-01-16T06:41:01.249Z,98748.80
2018-01-16T06:43:29.493Z,98740.16
2018-01-16T06:45:57.770Z,98739.73
2018-01-16T06:48:26.046Z,98744.80
2018-01-16T06:50:54.339Z,98746.15
2018-01-16T06:53:22.596Z,98745.61
2018-01-16T06:55:50.904Z,98737.78
2018-01-16T06:58:19.161Z,98730.85
2018-01-16T07:00:47.465Z,98726.27
2018-01-16T07:03:15.747Z,98730.41
2018-01-16T07:05:44.045Z,98731.95
2018-01-16T07:08:12.338Z,98728.14
2018-01-16T07:10:40.602Z,98736.49
2018-01-16T07:13:08.908Z,98744.27
2018-01-16T07:15:37.181Z,98742.01
2018-01-16T07:18:05.450Z,98731.80
2018-01-16T07:20:33.799Z,98735.76
2018-01-16T07:23:02.301Z,98741.73
2018-01-16T07:25:30.600Z,98734.39
2018-01-16T07:27:58.900Z,98723.02
2018-01-16T07:30:27.166Z,98725.31
2018-01-16T07:32:55.421Z,98726.67
2018-01-16T07:35:23.748Z,98731.23
2018-01-16T07:37:52.055Z,98735.19
2018-01-16T07:40:20.505Z,98740.05
2018-01-16T07:42:48.940Z,98730.05
2018-01-16T07:45:17.249Z,98724.48
2018-01-16T07:47:45.690Z,98713.86
2018-01-16T07:50:14.028Z,98725.02
2018-01-16T07:52:42.297Z,98719.41
2018-01-16T07:55:10.756Z,98720.65
2018-01-16T07:57:38.991Z,98721.12
2018-01-16T08:00:07.296Z,98722.88
2018-01-16T08:02:35.557Z,98711.63
2018-01-16T08:05:03.864Z,98715.92
2018-01-16T08:07:32.326Z,98706.30
2018-01-16T08:10:00.636Z,98703.50
2018-01-16T08:12:29.858Z,98697.53
2018-01-16T08:14:58.121Z,98691.70
2018-01-16T08:17:26.575Z,98691.10
2018-01-16T08:19:55.241Z,98691.45
2018-01-16T08:22:23.926Z,98682.63
2018-01-16T08:24:52.177Z,98681.65
2018-01-16T08:27:20.609Z,98688.79
2018-01-16T08:29:49.049Z,98693.34
2018-01-16T08:32:17.382Z,98692.03
2018-01-16T08:34:45.816Z,98686.86
2018-01-16T08:37:14.156Z,98682.28
2018-01-16T08:39:42.448Z,98679.41
2018-01-16T08:42:10.821Z,98689.30
2018-01-16T08:44:39.147Z,98692.18
2018-01-16T08:47:07.638Z,98682.13
2018-01-16T08:49:36.096Z,98682.64
2018-01-16T08:52:04.436Z,98683.45
2018-01-16T08:54:32.702Z,98689.46
2018-01-16T08:57:01.004Z,98683.45
2018-01-16T08:59:29.321Z,98686.17
2018-01-16T09:01:57.661Z,98677.69
2018-01-16T09:04:25.921Z,98678.69
2018-01-16T09:06:54.805Z,98674.83
2018-01-16T09:09:23.558Z,98677.05
2018-01-16T09:11:52.033Z,98670.38
2018-01-16T09:14:20.528Z,98677.88
2018-01-16T09:16:49.001Z,98664.31
2018-01-16T09:19:17.242Z,98665.85
2018-01-16T09:21:45.553Z,98659.31
2018-01-16T09:24:13.821Z,98657.29
2018-01-16T09:26:42.093Z,98659.33
2018-01-16T09:29:10.354Z,98659.11
2018-01-16T09:31:38.649Z,98654.35
2018-01-16T09:34:06.915Z,98656.34
2018-01-16T09:36:35.261Z,98649.55
2018-01-16T09:39:03.645Z,98650.68
2018-01-16T09:41:31.977Z,98642.20
2018-01-16T09:44:00.341Z,98652.53
2018-01-16T09:46:28.613Z,98645.95
2018-01-16T09:48:56.867Z,98643.02
2018-01-16T09:51:25.616Z,98642.69
2018-01-16T09:53:53.880Z,98645.89
2018-01-16T09:56:22.329Z,98641.31
2018-01-16T09:58:50.608Z,98641.33
2018-01-16T10:01:19.097Z,98636.01
2018-01-16T10:03:47.556Z,98639.03
2018-01-16T10:06:15.953Z,98640.84
2018-01-16T10:08:44.264Z,98637.27
2018-01-16T10:11:12.584Z,98634.50
2018-01-16T10:13:40.948Z,98642.70
2018-01-16T10:16:09.801Z,98642.27
2018-01-16T10:18:38.196Z,98641.33
2018-01-16T10:21:06.669Z,98641.99
2018-01-16T10:23:35.089Z,98644.80
2018-01-16T10:26:03.353Z,98639.38
2018-01-16T10:28:31.852Z,98632.48
2018-01-16T10:31:00.196Z,98625.80
2018-01-16T10:33:28.601Z,98625.56
2018-01-16T10:35:56.946Z,98624.83
2018-01-16T10:38:25.203Z,98627.14
2018-01-16T10:40:53.505Z,98630.37
2018-01-16T10:43:21.788Z,98626.29
2018-01-16T10:45:50.212Z,98625.56
2018-01-16T10:48:18.460Z,98629.70
2018-01-16T10:50:47.037Z,98628.10
2018-01-16T10:53:15.293Z,98622.81
2018-01-16T10:56:46.726Z,98618.31
2018-01-16T10:59:23.678Z,98620.76
2018-01-16T11:01:52.165Z,98613.86
2018-01-16T11:04:20.612Z,98610.07
2018-01-16T11:06:49.197Z,98614.86
2018-01-16T11:09:17.464Z,98613.16
2018-01-16T11:11:45.788Z,98616.41
2018-01-16T11:14:14.118Z,98571.57
2018-01-16T11:16:42.656Z,98586.16
2018-01-16T11:19:10.972Z,98579.59
2018-01-16T11:21:39.317Z,98551.38
2018-01-16T11:24:07.660Z,98579.64
2018-01-16T11:26:36.021Z,98571.41
2018-01-16T11:29:04.408Z,98584.06
2018-01-16T11:31:32.875Z,98578.00
2018-01-16T11:34:01.306Z,98576.13
2018-01-16T11:36:29.647Z,98571.30
2018-01-16T11:38:58.430Z,98566.86
2018-01-16T11:41:27.838Z,98563.89
2018-01-16T11:43:56.111Z,98560.06
2018-01-16T11:46:24.405Z,98567.81
2018-01-16T11:48:52.702Z,98553.80
2018-01-16T11:51:21.166Z,98553.28
2018-01-16T11:53:49.596Z,98554.30
2018-01-16T11:56:17.893Z,98562.36
2018-01-16T11:58:46.351Z,98550.88
2018-01-16T12:01:14.677Z,98552.33
2018-01-16T12:03:42.996Z,98547.09
2018-01-16T12:06:11.335Z,98527.44
2018-01-16T12:08:39.603Z,98522.59
2018-01-16T12:11:07.982Z,98504.03
2018-01-16T12:13:36.437Z,98502.56
2018-01-16T12:16:04.761Z,98508.79
2018-01-16T12:18:33.395Z,98505.84
2018-01-16T12:21:01.714Z,98506.11
2018-01-16T12:23:30.084Z,98502.35
2018-01-16T12:25:58.377Z,98507.31
2018-01-16T12:28:26.702Z,98495.22
2018-01-16T12:30:55.055Z,98493.05
2018-01-16T12:33:23.501Z,98500.41
2018-01-16T12:35:51.976Z,98504.64
2018-01-16T12:38:20.290Z,98504.72
2018-01-16T12:40:48.649Z,98504.81
2018-01-16T12:43:16.924Z,98510.89
2018-01-16T12:45:48.089Z,98490.80
2018-01-16T12:48:16.646Z,98502.17
2018-01-16T12:50:44.951Z,98507.14
2018-01-16T12:53:13.360Z,98494.03
2018-01-16T12:55:41.655Z,98499.29
2018-01-16T12:58:09.917Z,98490.73
2018-01-16T13:00:38.228Z,98493.04
2018-01-16T13:03:06.732Z,98481.69
2018-01-16T13:05:35.492Z,98476.69
2018-01-16T13:08:03.766Z,98478.34
2018-01-16T13:10:32.068Z,98480.88
2018-01-16T13:13:00.368Z,98479.69
2018-01-16T13:15:28.665Z,98472.88
2018-01-16T13:17:58.175Z,98468.75
2018-01-16T13:20:26.645Z,98462.26
2018-01-16T13:22:54.897Z,98466.03
2018-01-16T13:25:23.356Z,98467.30
2018-01-16T13:27:51.680Z,98467.77
2018-01-16T13:30:20.480Z,98459.63
2018-01-16T13:32:49.064Z,98456.23
2018-01-16T13:35:17.652Z,98452.88
2018-01-16T13:37:46.821Z,98452.88
2018-01-16T13:40:15.192Z,98448.85
2018-01-16T13:42:43.831Z,98458.16
2018-01-16T13:45:12.301Z,98449.91
2018-01-16T13:47:40.612Z,98452.49
2018-01-16T13:50:09.036Z,98454.32
2018-01-16T13:52:37.505Z,98458.96
2018-01-16T13:55:06.700Z,98450.48
2018-01-16T13:57:35.025Z,98451.45
2018-01-16T14:00:03.286Z,98444.52
2018-01-16T14:02:31.597Z,98446.72
2018-01-16T14:04:59.888Z,98449.53
2018-01-16T14:07:28.224Z,98448.78
2018-01-16T14:09:56.566Z,98441.52
2018-01-16T14:12:24.882Z,98453.56
2018-01-16T14:14:53.423Z,98451.50
2018-01-16T14:17:21.773Z,98448.06
2018-01-16T14:19:50.196Z,98445.80
2018-01-16T14:22:18.557Z,98447.02
2018-01-16T14:24:46.972Z,98440.12
2018-01-16T14:27:15.339Z,98441.62
2018-01-16T14:29:44.577Z,98437.28
2018-01-16T14:32:12.875Z,98442.02
2018-01-16T14:34:41.108Z,98442.42
2018-01-16T14:37:09.540Z,98439.60
2018-01-16T14:39:37.809Z,98439.85
2018-01-16T14:42:06.351Z,98439.60
2018-01-16T14:44:34.608Z,98438.48
2018-01-16T14:47:03.889Z,98441.20
2018-01-16T14:49:32.114Z,98441.05
2018-01-16T14:52:00.623Z,98445.77
2018-01-16T14:54:28.942Z,98443.09
2018-01-16T14:56:57.353Z,98444.49
2018-01-16T14:59:25.720Z,98449.98
2018-01-16T15:01:54.185Z,98448.77
2018-01-16T15:04:22.648Z,98452.52
2018-01-16T15:06:51.019Z,98453.20
2018-01-16T15:09:19.713Z,98454.48
2018-01-16T15:11:48.196Z,98452.34
2018-01-16T15:14:17.333Z,98447.66
2018-01-16T15:16:47.406Z,98448.84
2018-01-16T15:19:15.644Z,98446.06
2018-01-16T15:21:44.333Z,98448.78
2018-01-16T15:24:13.944Z,98448.18
2018-01-16T15:26:44.544Z,98459.34
2018-01-16T15:29:13.520Z,98456.75
2018-01-16T15:31:47.398Z,98462.66
2018-01-16T15:34:16.682Z,98462.77
2018-01-16T15:36:45.002Z,98464.33
2018-01-16T15:39:13.261Z,98470.66
2018-01-16T15:41:41.585Z,98464.64
2018-01-16T15:44:09.821Z,98476.22
2018-01-16T15:46:38.109Z,98481.35
2018-01-16T15:49:06.373Z,98485.33
2018-01-16T15:51:34.668Z,98479.72
2018-01-16T15:54:02.961Z,98478.62
2018-01-16T15:56:31.425Z,98478.19
2018-01-16T15:58:59.754Z,98478.72
2018-01-16T16:01:28.080Z,98494.81
2018-01-16T16:03:56.397Z,98493.73
2018-01-16T16:06:24.697Z,98486.46
2018-01-16T16:08:53.045Z,98496.64
2018-01-16T16:11:21.476Z,98503.05
2018-01-16T16:13:50.113Z,98497.02
2018-01-16T16:16:18.690Z,98498.48
2018-01-16T16:18:47.304Z,98508.44
2018-01-16T16:21:15.697Z,98498.22
2018-01-16T16:23:43.978Z,98504.60
2018-01-16T16:26:12.285Z,98502.42
2018-01-16T16:28:40.553Z,98517.73
2018-01-16T16:31:08.846Z,98511.32
2018-01-16T16:33:37.092Z,98516.97
2018-01-16T16:36:05.376Z,98529.87
2018-01-16T16:38:33.668Z,98530.39
2018-01-16T16:41:01.949Z,98536.28
2018-01-16T16:43:30.286Z,98535.08
2018-01-16T16:45:58.608Z,98544.12
2018-01-16T16:48:26.969Z,98531.31
2018-01-16T16:50:55.376Z,98543.16
2018-01-16T16:53:23.800Z,98548.09
2018-01-16T16:55:52.077Z,98555.67
2018-01-16T16:58:20.353Z,98549.02
2018-01-16T17:00:48.654Z,98543.20
2018-01-16T17:03:17.081Z,98546.62
2018-01-16T17:05:52.027Z,98555.33
2018-01-16T17:08:20.290Z,98556.97
2018-01-16T17:10:48.597Z,98561.44
2018-01-16T17:13:17.004Z,98575.38
2018-01-16T17:15:45.274Z,98564.70
2018-01-16T17:18:13.555Z,98570.02
2018-01-16T17:20:41.854Z,98578.23
2018-01-16T17:23:10.132Z,98574.03
2018-01-16T17:25:38.561Z,98573.30
2018-01-16T17:28:06.837Z,98578.92
2018-01-16T17:30:35.329Z,98582.34
2018-01-16T17:33:03.800Z,98589.21
2018-01-16T17:35:32.285Z,98590.36
2018-01-16T17:38:00.556Z,98592.23
2018-01-16T17:40:28.836Z,98596.94
2018-01-16T17:42:57.125Z,98601.69
2018-01-16T17:45:25.613Z,98607.37
2018-01-16T17:47:53.875Z,98597.41
2018-01-16T17:50:22.192Z,98600.10
2018-01-16T17:52:50.628Z,98612.84
2018-01-16T17:55:18.900Z,98609.95
2018-01-16T17:57:47.160Z,98609.39
2018-01-16T18:00:15.429Z,98608.13
2018-01-16T18:02:43.720Z,98623.34
2018-01-16T18:05:12.033Z,98618.27
2018-01-16T18:07:40.293Z,98626.83
2018-01-16T18:10:08.593Z,98623.56
2018-01-16T18:12:37.022Z,98630.69
2018-01-16T18:15:05.529Z,98618.27
2018-01-16T18:17:33.989Z,98619.61
2018-01-16T18:20:02.460Z,98616.59
2018-01-16T18:22:31.028Z,98625.12
2018-01-16T18:24:59.368Z,98620.14
2018-01-16T18:27:27.944Z,98635.61
2018-01-16T18:29:56.302Z,98636.83
2018-01-16T18:32:24.703Z,98630.97
2018-01-16T18:34:53.839Z,98628.53
2018-01-16T18:37:22.260Z,98627.07
2018-01-16T18:39:50.700Z,98629.57
2018-01-16T18:42:19.044Z,98630.98
2018-01-16T18:44:47.472Z,98629.31
2018-01-16T18:47:15.773Z,98630.64
2018-01-16T18:49:44.044Z,98627.60
2018-01-16T18:52:12.379Z,98628.98
2018-01-16T18:54:40.693Z,98625.23
2018-01-16T18:57:09.101Z,98623.70
2018-01-16T18:59:40.870Z,98628.17
2018-01-16T19:02:09.180Z,98622.48
2018-01-16T19:04:41.576Z,98630.60
2018-01-16T19:07:09.885Z,98619.32
2018-01-16T19:09:38.397Z,98629.03
2018-01-16T19:12:06.741Z,98630.67
2018-01-16T19:14:35.181Z,98635.48
2018-01-16T19:17:03.541Z,98635.73
2018-01-16T19:19:36.047Z,98632.30
2018-01-16T19:22:05.002Z,98639.95
2018-01-16T19:24:35.038Z,98634.25
2018-01-16T19:27:04.001Z,98645.38
2018-01-16T19:29:32.285Z,98649.06
2018-01-16T19:32:00.630Z,98641.73
2018-01-16T19:34:28.972Z,98648.44
2018-01-16T19:36:57.273Z,98653.42
2018-01-16T19:39:25.525Z,98651.14
2018-01-16T19:41:54.840Z,98648.41
2018-01-16T19:44:23.321Z,98648.33
2018-01-16T19:46:51.710Z,98649.88
2018-01-16T19:49:19.998Z,98655.04
2018-01-16T19:51:48.264Z,98654.51
2018-01-16T19:54:23.223Z,98660.86
2018-01-16T19:56:51.538Z,98659.30
2018-01-16T19:59:19.772Z,98662.44
2018-01-16T20:01:48.216Z,98663.02
2018-01-16T20:04:16.488Z,98657.36
2018-01-16T20:06:44.789Z,98667.72
2018-01-16T20:09:13.080Z,98662.77
2018-01-16T20:11:41.468Z,98675.08
2018-01-16T20:14:09.722Z,98670.14
2018-01-16T20:16:38.089Z,98677.41
2018-01-16T20:19:06.372Z,98667.66
2018-01-16T20:21:34.758Z,98671.21
2018-01-16T20:24:03.098Z,98679.22
2018-01-16T20:26:31.403Z,98676.14
2018-01-16T20:28:59.661Z,98680.43
2018-01-16T20:31:28.155Z,98684.31
2018-01-16T20:33:57.651Z,98683.70
2018-01-16T20:36:26.365Z,98690.30
2018-01-16T20:38:54.813Z,98687.27
2018-01-16T20:41:23.135Z,98684.36
2018-01-16T20:43:51.409Z,98686.53
2018-01-16T20:46:19.731Z,98700.28
2018-01-16T20:48:48.010Z,98697.02
2018-01-16T20:51:16.320Z,98701.61
2018-01-16T20:53:44.560Z,98689.31
2018-01-16T20:56:12.876Z,98703.05
2018-01-16T20:58:41.116Z,98702.63
2018-01-16T21:01:09.468Z,98693.09
2018-01-16T21:03:37.784Z,98696.02
2018-01-16T21:06:06.293Z,98707.92
2018-01-16T21:08:34.559Z,98712.44
2018-01-16T21:11:03.020Z,98710.23
2018-01-16T21:13:31.469Z,98704.20
2018-01-16T21:16:00.196Z,98713.74
2018-01-16T21:18:28.632Z,98714.83
2018-01-16T21:21:00.763Z,98719.75
2018-01-16T21:23:29.604Z,98721.20
2018-01-16T21:25:58.238Z,98716.05
2018-01-16T21:28:27.315Z,98719.75
2018-01-16T21:30:55.709Z,98710.06
2018-01-16T21:33:24.288Z,98716.84
2018-01-16T21:35:52.595Z,98711.17
2018-01-16T21:38:21.885Z,98719.56
2018-01-16T21:40:53.141Z,98707.91
2018-01-16T21:43:24.746Z,98708.20
2018-01-16T21:45:54.082Z,98709.40
2018-01-16T21:48:22.740Z,98707.78
2018-01-16T21:50:53.429Z,98709.88
2018-01-16T21:53:26.066Z,98715.95
2018-01-16T21:55:58.027Z,98711.98
2018-01-16T21:58:28.246Z,98714.50
2018-01-16T22:00:56.704Z,98712.86
2018-01-16T22:03:25.148Z,98717.45
2018-01-16T22:05:53.450Z,98715.63
2018-01-16T22:08:21.759Z,98719.28
2018-01-16T22:10:50.060Z,98722.60
2018-01-16T22:13:18.465Z,98715.85
2018-01-16T22:15:46.744Z,98718.89
2018-01-16T22:18:15.031Z,98714.02
2018-01-16T22:20:43.316Z,98712.87
2018-01-16T22:23:11.573Z,98713.05
2018-01-16T22:25:40.290Z,98706.45
2018-01-16T22:28:08.714Z,98710.51
2018-01-16T22:30:37.041Z,98710.17
2018-01-16T22:33:05.434Z,98716.80
2018-01-16T22:35:33.900Z,98721.17
2018-01-16T22:38:02.368Z,98713.77
2018-01-16T22:40:30.650Z,98718.34
2018-01-16T22:43:00.919Z,98719.75
2018-01-16T22:45:31.356Z,98719.98
2018-01-16T22:47:59.757Z,98714.11
2018-01-16T22:50:28.080Z,98722.42
2018-01-16T22:52:56.327Z,98724.43
2018-01-16T22:55:24.807Z,98720.80
2018-01-16T22:57:55.129Z,98715.02
2018-01-16T23:00:26.356Z,98713.94
2018-01-16T23:02:54.675Z,98713.53
2018-01-16T23:05:22.954Z,98702.44
2018-01-16T23:07:51.288Z,98708.66
2018-01-16T23:10:19.590Z,98714.53
2018-01-16T23:12:48.249Z,98721.28
2018-01-16T23:15:16.520Z,98708.03
2018-01-16T23:17:44.841Z,98715.20
2018-01-16T23:20:13.338Z,98710.45
2018-01-16T23:22:42.369Z,98719.37
2018-01-16T23:25:10.677Z,98718.05
2018-01-16T23:27:38.949Z,98716.98
2018-01-16T23:30:07.239Z,98706.34
2018-01-16T23:32:35.676Z,98718.34
2018-01-16T23:35:04.012Z,98717.98
2018-01-16T23:37:32.273Z,98719.56
2018-01-16T23:40:00.517Z,98720.44
2018-01-16T23:42:29.533Z,98730.17
2018-01-16T23:45:01.249Z,98725.75
2018-01-16T23:47:30.728Z,98725.94
2018-01-16T23:49:59.189Z,98724.05
2018-01-16T23:52:27.653Z,98724.23
2018-01-16T23:54:56.225Z,98726.66
2018-01-16T23:57:24.592Z,98726.70
2018-01-16T23:59:52.882Z,98721.98
